sensor_id;sensor_type;location;lat;lon;timestamp;P1;durP1;ratioP1;P2;durP2;ratioP2
1154;SDS011;566;48.414;9.118;2022-12-07T00:01:14;32.53;;;20.80;;
1154;SDS011;566;48.414;9.118;2022-12-07T00:03:45;31.42;;;19.13;;
1154;SDS011;566;48.414;9.118;2022-12-07T00:06:12;32.50;;;20.35;;
1154;SDS011;566;48.414;9.118;2022-12-07T00:08:39;31.27;;;19.45;;
1154;SDS011;566;48.414;9.118;2022-12-07T00:11:09;31.20;;;17.52;;
1154;SDS011;566;48.414;9.118;2022-12-07T00:13:39;27.23;;;17.13;;
1154;SDS011;566;48.414;9.118;2022-12-07T00:16:09;32.38;;;18.05;;
1154;SDS011;566;48.414;9.118;2022-12-07T00:18:40;25.77;;;16.55;;
1154;SDS011;566;48.414;9.118;2022-12-07T00:21:13;23.02;;;14.98;;
1154;SDS011;566;48.414;9.118;2022-12-07T00:23:41;27.55;;;16.50;;
1154;SDS011;566;48.414;9.118;2022-12-07T00:26:09;27.13;;;15.20;;
1154;SDS011;566;48.414;9.118;2022-12-07T00:28:38;23.38;;;14.68;;
1154;SDS011;566;48.414;9.118;2022-12-07T00:31:05;19.70;;;13.93;;
1154;SDS011;566;48.414;9.118;2022-12-07T00:33:32;20.52;;;13.45;;
1154;SDS011;566;48.414;9.118;2022-12-07T00:35:59;22.65;;;14.60;;
1154;SDS011;566;48.414;9.118;2022-12-07T00:38:27;24.00;;;14.63;;
1154;SDS011;566;48.414;9.118;2022-12-07T00:41:05;19.63;;;12.90;;
1154;SDS011;566;48.414;9.118;2022-12-07T00:43:35;23.00;;;14.10;;
1154;SDS011;566;48.414;9.118;2022-12-07T00:46:01;23.08;;;15.35;;
1154;SDS011;566;48.414;9.118;2022-12-07T00:48:26;20.45;;;13.15;;
1154;SDS011;566;48.414;9.118;2022-12-07T00:50:52;24.70;;;16.58;;
1154;SDS011;566;48.414;9.118;2022-12-07T00:53:18;20.50;;;14.00;;
1154;SDS011;566;48.414;9.118;2022-12-07T00:55:44;25.95;;;15.77;;
1154;SDS011;566;48.414;9.118;2022-12-07T00:58:10;19.92;;;14.48;;
1154;SDS011;566;48.414;9.118;2022-12-07T01:00:37;22.10;;;13.18;;
1154;SDS011;566;48.414;9.118;2022-12-07T01:03:04;26.00;;;14.93;;
1154;SDS011;566;48.414;9.118;2022-12-07T01:05:31;27.80;;;15.02;;
1154;SDS011;566;48.414;9.118;2022-12-07T01:07:57;22.65;;;15.55;;
1154;SDS011;566;48.414;9.118;2022-12-07T01:10:22;21.35;;;14.35;;
1154;SDS011;566;48.414;9.118;2022-12-07T01:12:48;23.75;;;15.38;;
1154;SDS011;566;48.414;9.118;2022-12-07T01:15:14;26.67;;;15.23;;
1154;SDS011;566;48.414;9.118;2022-12-07T01:17:40;26.15;;;17.10;;
1154;SDS011;566;48.414;9.118;2022-12-07T01:20:05;27.00;;;16.20;;
1154;SDS011;566;48.414;9.118;2022-12-07T01:22:38;24.88;;;14.35;;
1154;SDS011;566;48.414;9.118;2022-12-07T01:25:05;22.55;;;14.52;;
1154;SDS011;566;48.414;9.118;2022-12-07T01:27:32;30.15;;;17.33;;
1154;SDS011;566;48.414;9.118;2022-12-07T01:29:58;24.80;;;14.68;;
1154;SDS011;566;48.414;9.118;2022-12-07T01:32:24;23.02;;;15.23;;
1154;SDS011;566;48.414;9.118;2022-12-07T01:34:50;21.88;;;14.32;;
1154;SDS011;566;48.414;9.118;2022-12-07T01:37:16;20.90;;;13.25;;
1154;SDS011;566;48.414;9.118;2022-12-07T01:39:41;21.52;;;14.32;;
1154;SDS011;566;48.414;9.118;2022-12-07T01:42:16;20.75;;;13.40;;
1154;SDS011;566;48.414;9.118;2022-12-07T01:47:46;26.77;;;13.88;;
1154;SDS011;566;48.414;9.118;2022-12-07T01:50:18;21.13;;;13.75;;
1154;SDS011;566;48.414;9.118;2022-12-07T01:52:55;27.42;;;15.95;;
1154;SDS011;566;48.414;9.118;2022-12-07T01:55:22;38.03;;;17.80;;
1154;SDS011;566;48.414;9.118;2022-12-07T01:57:50;30.17;;;16.33;;
1154;SDS011;566;48.414;9.118;2022-12-07T02:00:18;25.20;;;15.10;;
1154;SDS011;566;48.414;9.118;2022-12-07T02:03:03;23.08;;;14.38;;
1154;SDS011;566;48.414;9.118;2022-12-07T02:05:42;18.95;;;12.80;;
1154;SDS011;566;48.414;9.118;2022-12-07T02:08:08;23.38;;;14.60;;
1154;SDS011;566;48.414;9.118;2022-12-07T02:10:41;20.75;;;13.35;;
1154;SDS011;566;48.414;9.118;2022-12-07T02:13:15;22.40;;;13.65;;
1154;SDS011;566;48.414;9.118;2022-12-07T02:15:50;18.83;;;12.80;;
1154;SDS011;566;48.414;9.118;2022-12-07T02:18:22;21.73;;;14.43;;
1154;SDS011;566;48.414;9.118;2022-12-07T02:23:35;23.92;;;15.48;;
1154;SDS011;566;48.414;9.118;2022-12-07T02:26:37;17.77;;;12.27;;
1154;SDS011;566;48.414;9.118;2022-12-07T02:29:13;21.73;;;14.30;;
1154;SDS011;566;48.414;9.118;2022-12-07T02:32:13;25.90;;;15.73;;
1154;SDS011;566;48.414;9.118;2022-12-07T02:37:18;22.85;;;14.10;;
1154;SDS011;566;48.414;9.118;2022-12-07T02:39:59;22.08;;;14.90;;
1154;SDS011;566;48.414;9.118;2022-12-07T02:42:40;19.33;;;13.50;;
1154;SDS011;566;48.414;9.118;2022-12-07T02:45:10;24.15;;;15.98;;
1154;SDS011;566;48.414;9.118;2022-12-07T02:47:39;18.08;;;11.90;;
1154;SDS011;566;48.414;9.118;2022-12-07T02:50:05;24.38;;;15.15;;
1154;SDS011;566;48.414;9.118;2022-12-07T02:52:34;21.85;;;14.00;;
1154;SDS011;566;48.414;9.118;2022-12-07T02:55:00;19.15;;;12.82;;
1154;SDS011;566;48.414;9.118;2022-12-07T02:57:29;25.75;;;15.52;;
1154;SDS011;566;48.414;9.118;2022-12-07T03:00:19;25.13;;;16.10;;
1154;SDS011;566;48.414;9.118;2022-12-07T03:16:39;22.85;;;14.23;;
1154;SDS011;566;48.414;9.118;2022-12-07T03:19:13;24.02;;;15.52;;
1154;SDS011;566;48.414;9.118;2022-12-07T03:24:12;22.50;;;13.75;;
1154;SDS011;566;48.414;9.118;2022-12-07T03:26:49;25.40;;;15.98;;
1154;SDS011;566;48.414;9.118;2022-12-07T03:29:22;28.17;;;15.80;;
1154;SDS011;566;48.414;9.118;2022-12-07T03:31:55;25.45;;;16.55;;
1154;SDS011;566;48.414;9.118;2022-12-07T03:34:36;27.30;;;17.48;;
1154;SDS011;566;48.414;9.118;2022-12-07T03:37:33;21.48;;;14.68;;
1154;SDS011;566;48.414;9.118;2022-12-07T03:40:03;18.48;;;12.93;;
1154;SDS011;566;48.414;9.118;2022-12-07T03:42:48;24.38;;;16.25;;
1154;SDS011;566;48.414;9.118;2022-12-07T03:45:14;22.13;;;15.35;;
1154;SDS011;566;48.414;9.118;2022-12-07T03:47:48;28.65;;;18.10;;
1154;SDS011;566;48.414;9.118;2022-12-07T03:55:43;26.88;;;16.75;;
1154;SDS011;566;48.414;9.118;2022-12-07T03:58:11;35.03;;;23.95;;
1154;SDS011;566;48.414;9.118;2022-12-07T04:00:41;29.92;;;17.77;;
1154;SDS011;566;48.414;9.118;2022-12-07T04:03:08;31.73;;;19.98;;
1154;SDS011;566;48.414;9.118;2022-12-07T04:05:34;23.02;;;15.38;;
1154;SDS011;566;48.414;9.118;2022-12-07T04:08:00;28.75;;;18.05;;
1154;SDS011;566;48.414;9.118;2022-12-07T04:10:26;23.98;;;16.33;;
1154;SDS011;566;48.414;9.118;2022-12-07T04:12:55;28.27;;;16.98;;
1154;SDS011;566;48.414;9.118;2022-12-07T04:15:23;28.40;;;17.60;;
1154;SDS011;566;48.414;9.118;2022-12-07T04:17:49;27.65;;;16.60;;
1154;SDS011;566;48.414;9.118;2022-12-07T04:20:15;25.33;;;15.55;;
1154;SDS011;566;48.414;9.118;2022-12-07T04:22:41;21.00;;;12.82;;
1154;SDS011;566;48.414;9.118;2022-12-07T04:25:07;20.02;;;12.60;;
1154;SDS011;566;48.414;9.118;2022-12-07T04:27:32;20.40;;;13.73;;
1154;SDS011;566;48.414;9.118;2022-12-07T04:29:58;27.58;;;17.08;;
1154;SDS011;566;48.414;9.118;2022-12-07T04:32:24;23.83;;;15.57;;
1154;SDS011;566;48.414;9.118;2022-12-07T04:34:49;19.75;;;12.88;;
1154;SDS011;566;48.414;9.118;2022-12-07T04:37:15;39.95;;;23.95;;
1154;SDS011;566;48.414;9.118;2022-12-07T04:39:42;27.60;;;16.80;;
1154;SDS011;566;48.414;9.118;2022-12-07T04:42:09;23.58;;;15.05;;
1154;SDS011;566;48.414;9.118;2022-12-07T04:44:36;17.27;;;11.98;;
1154;SDS011;566;48.414;9.118;2022-12-07T04:47:01;17.75;;;11.48;;
1154;SDS011;566;48.414;9.118;2022-12-07T04:49:27;18.95;;;11.77;;
1154;SDS011;566;48.414;9.118;2022-12-07T04:51:53;16.73;;;10.75;;
1154;SDS011;566;48.414;9.118;2022-12-07T04:54:24;25.48;;;14.75;;
1154;SDS011;566;48.414;9.118;2022-12-07T04:56:50;23.40;;;13.63;;
1154;SDS011;566;48.414;9.118;2022-12-07T04:59:18;48.45;;;33.17;;
1154;SDS011;566;48.414;9.118;2022-12-07T05:01:44;38.08;;;26.15;;
1154;SDS011;566;48.414;9.118;2022-12-07T05:04:10;33.95;;;20.70;;
1154;SDS011;566;48.414;9.118;2022-12-07T05:06:35;24.38;;;14.80;;
1154;SDS011;566;48.414;9.118;2022-12-07T05:09:01;17.55;;;11.43;;
1154;SDS011;566;48.414;9.118;2022-12-07T05:11:27;22.27;;;13.13;;
1154;SDS011;566;48.414;9.118;2022-12-07T05:14:09;25.45;;;14.50;;
1154;SDS011;566;48.414;9.118;2022-12-07T05:16:35;18.27;;;11.48;;
1154;SDS011;566;48.414;9.118;2022-12-07T05:19:01;16.75;;;10.70;;
1154;SDS011;566;48.414;9.118;2022-12-07T05:21:27;16.42;;;10.65;;
1154;SDS011;566;48.414;9.118;2022-12-07T05:23:53;17.00;;;11.20;;
1154;SDS011;566;48.414;9.118;2022-12-07T05:26:19;16.63;;;10.50;;
1154;SDS011;566;48.414;9.118;2022-12-07T05:28:44;14.30;;;9.38;;
1154;SDS011;566;48.414;9.118;2022-12-07T05:31:10;15.48;;;9.65;;
1154;SDS011;566;48.414;9.118;2022-12-07T05:33:35;18.00;;;11.57;;
1154;SDS011;566;48.414;9.118;2022-12-07T05:36:01;15.48;;;9.90;;
1154;SDS011;566;48.414;9.118;2022-12-07T05:38:30;13.95;;;8.93;;
1154;SDS011;566;48.414;9.118;2022-12-07T05:40:59;15.63;;;10.23;;
1154;SDS011;566;48.414;9.118;2022-12-07T05:43:29;14.65;;;9.18;;
1154;SDS011;566;48.414;9.118;2022-12-07T05:45:55;15.75;;;9.48;;
1154;SDS011;566;48.414;9.118;2022-12-07T05:48:21;18.83;;;10.02;;
1154;SDS011;566;48.414;9.118;2022-12-07T05:50:49;17.50;;;9.95;;
1154;SDS011;566;48.414;9.118;2022-12-07T05:53:16;16.40;;;9.65;;
1154;SDS011;566;48.414;9.118;2022-12-07T05:55:42;14.60;;;7.80;;
1154;SDS011;566;48.414;9.118;2022-12-07T05:58:11;16.30;;;9.43;;
1154;SDS011;566;48.414;9.118;2022-12-07T06:00:55;14.32;;;8.85;;
1154;SDS011;566;48.414;9.118;2022-12-07T06:03:21;16.27;;;9.93;;
1154;SDS011;566;48.414;9.118;2022-12-07T06:05:47;15.48;;;9.70;;
1154;SDS011;566;48.414;9.118;2022-12-07T06:08:12;17.95;;;11.68;;
1154;SDS011;566;48.414;9.118;2022-12-07T06:10:39;16.48;;;9.80;;
1154;SDS011;566;48.414;9.118;2022-12-07T06:13:05;14.80;;;9.25;;
1154;SDS011;566;48.414;9.118;2022-12-07T06:15:40;16.50;;;9.15;;
1154;SDS011;566;48.414;9.118;2022-12-07T06:18:06;12.38;;;7.50;;
1154;SDS011;566;48.414;9.118;2022-12-07T06:20:31;12.43;;;7.82;;
1154;SDS011;566;48.414;9.118;2022-12-07T06:22:57;15.32;;;9.55;;
1154;SDS011;566;48.414;9.118;2022-12-07T06:25:25;18.67;;;10.48;;
1154;SDS011;566;48.414;9.118;2022-12-07T06:27:51;23.75;;;12.27;;
1154;SDS011;566;48.414;9.118;2022-12-07T06:30:17;22.65;;;12.30;;
1154;SDS011;566;48.414;9.118;2022-12-07T06:32:42;22.52;;;12.73;;
1154;SDS011;566;48.414;9.118;2022-12-07T06:35:11;22.80;;;11.75;;
1154;SDS011;566;48.414;9.118;2022-12-07T06:37:37;19.75;;;11.27;;
1154;SDS011;566;48.414;9.118;2022-12-07T06:40:02;19.30;;;12.45;;
1154;SDS011;566;48.414;9.118;2022-12-07T06:42:29;16.48;;;10.55;;
1154;SDS011;566;48.414;9.118;2022-12-07T06:44:54;16.85;;;9.55;;
1154;SDS011;566;48.414;9.118;2022-12-07T06:47:20;19.98;;;10.38;;
1154;SDS011;566;48.414;9.118;2022-12-07T06:49:45;13.57;;;7.88;;
1154;SDS011;566;48.414;9.118;2022-12-07T06:52:11;14.05;;;8.35;;
1154;SDS011;566;48.414;9.118;2022-12-07T06:54:36;13.45;;;8.25;;
1154;SDS011;566;48.414;9.118;2022-12-07T06:57:02;13.18;;;7.80;;
1154;SDS011;566;48.414;9.118;2022-12-07T06:59:28;12.00;;;7.03;;
1154;SDS011;566;48.414;9.118;2022-12-07T07:01:56;13.15;;;7.78;;
1154;SDS011;566;48.414;9.118;2022-12-07T07:04:22;10.65;;;6.78;;
1154;SDS011;566;48.414;9.118;2022-12-07T07:06:48;12.38;;;7.18;;
1154;SDS011;566;48.414;9.118;2022-12-07T07:09:14;22.08;;;13.07;;
1154;SDS011;566;48.414;9.118;2022-12-07T07:11:42;22.48;;;13.75;;
1154;SDS011;566;48.414;9.118;2022-12-07T07:14:07;19.23;;;11.95;;
1154;SDS011;566;48.414;9.118;2022-12-07T07:16:33;14.70;;;9.63;;
1154;SDS011;566;48.414;9.118;2022-12-07T07:18:59;14.25;;;8.57;;
1154;SDS011;566;48.414;9.118;2022-12-07T07:21:27;22.30;;;13.00;;
1154;SDS011;566;48.414;9.118;2022-12-07T07:23:52;12.85;;;7.85;;
1154;SDS011;566;48.414;9.118;2022-12-07T07:26:18;125.32;;;48.47;;
1154;SDS011;566;48.414;9.118;2022-12-07T07:28:46;168.02;;;63.47;;
1154;SDS011;566;48.414;9.118;2022-12-07T07:31:12;87.10;;;37.55;;
1154;SDS011;566;48.414;9.118;2022-12-07T07:33:40;62.35;;;36.92;;
1154;SDS011;566;48.414;9.118;2022-12-07T07:36:06;22.42;;;14.40;;
1154;SDS011;566;48.414;9.118;2022-12-07T07:38:32;16.70;;;9.10;;
1154;SDS011;566;48.414;9.118;2022-12-07T07:40:57;16.80;;;10.25;;
1154;SDS011;566;48.414;9.118;2022-12-07T07:43:23;20.92;;;11.65;;
1154;SDS011;566;48.414;9.118;2022-12-07T07:45:48;12.68;;;7.60;;
1154;SDS011;566;48.414;9.118;2022-12-07T07:48:14;12.18;;;7.05;;
1154;SDS011;566;48.414;9.118;2022-12-07T07:50:39;14.50;;;8.35;;
1154;SDS011;566;48.414;9.118;2022-12-07T07:53:05;15.27;;;9.02;;
1154;SDS011;566;48.414;9.118;2022-12-07T07:55:31;13.88;;;9.35;;
1154;SDS011;566;48.414;9.118;2022-12-07T07:57:56;15.07;;;10.77;;
1154;SDS011;566;48.414;9.118;2022-12-07T08:00:42;13.30;;;9.30;;
1154;SDS011;566;48.414;9.118;2022-12-07T08:03:07;25.15;;;15.55;;
1154;SDS011;566;48.414;9.118;2022-12-07T08:05:33;32.70;;;16.70;;
1154;SDS011;566;48.414;9.118;2022-12-07T08:07:58;27.88;;;15.38;;
1154;SDS011;566;48.414;9.118;2022-12-07T08:10:24;20.35;;;12.65;;
1154;SDS011;566;48.414;9.118;2022-12-07T08:12:50;15.73;;;10.73;;
1154;SDS011;566;48.414;9.118;2022-12-07T08:15:36;13.50;;;8.68;;
1154;SDS011;566;48.414;9.118;2022-12-07T08:18:03;13.15;;;8.57;;
1154;SDS011;566;48.414;9.118;2022-12-07T08:20:32;14.38;;;8.48;;
1154;SDS011;566;48.414;9.118;2022-12-07T08:22:59;7.30;;;4.25;;
1154;SDS011;566;48.414;9.118;2022-12-07T08:25:24;7.00;;;4.20;;
1154;SDS011;566;48.414;9.118;2022-12-07T08:27:51;6.35;;;3.90;;
1154;SDS011;566;48.414;9.118;2022-12-07T08:30:17;6.53;;;4.00;;
1154;SDS011;566;48.414;9.118;2022-12-07T08:32:46;10.48;;;6.60;;
1154;SDS011;566;48.414;9.118;2022-12-07T08:35:12;9.60;;;6.07;;
1154;SDS011;566;48.414;9.118;2022-12-07T08:37:39;9.25;;;5.90;;
1154;SDS011;566;48.414;9.118;2022-12-07T08:40:05;10.85;;;6.60;;
1154;SDS011;566;48.414;9.118;2022-12-07T08:42:32;13.68;;;9.02;;
1154;SDS011;566;48.414;9.118;2022-12-07T08:45:03;18.08;;;10.55;;
1154;SDS011;566;48.414;9.118;2022-12-07T08:47:30;14.75;;;9.00;;
1154;SDS011;566;48.414;9.118;2022-12-07T08:49:56;16.67;;;9.80;;
1154;SDS011;566;48.414;9.118;2022-12-07T08:52:28;13.32;;;9.10;;
1154;SDS011;566;48.414;9.118;2022-12-07T08:54:57;15.05;;;10.18;;
1154;SDS011;566;48.414;9.118;2022-12-07T08:57:24;17.17;;;11.60;;
1154;SDS011;566;48.414;9.118;2022-12-07T08:59:51;18.75;;;12.38;;
1154;SDS011;566;48.414;9.118;2022-12-07T09:02:16;18.23;;;11.95;;
1154;SDS011;566;48.414;9.118;2022-12-07T09:04:42;16.55;;;10.35;;
1154;SDS011;566;48.414;9.118;2022-12-07T09:07:08;19.00;;;11.88;;
1154;SDS011;566;48.414;9.118;2022-12-07T09:09:37;16.63;;;11.07;;
1154;SDS011;566;48.414;9.118;2022-12-07T09:12:08;18.20;;;10.95;;
1154;SDS011;566;48.414;9.118;2022-12-07T09:14:33;15.02;;;10.35;;
1154;SDS011;566;48.414;9.118;2022-12-07T09:17:06;16.88;;;11.38;;
1154;SDS011;566;48.414;9.118;2022-12-07T09:19:38;16.40;;;10.25;;
1154;SDS011;566;48.414;9.118;2022-12-07T09:22:07;16.20;;;9.20;;
1154;SDS011;566;48.414;9.118;2022-12-07T09:24:33;17.15;;;10.18;;
1154;SDS011;566;48.414;9.118;2022-12-07T09:26:59;16.80;;;9.65;;
1154;SDS011;566;48.414;9.118;2022-12-07T09:29:24;13.93;;;8.73;;
1154;SDS011;566;48.414;9.118;2022-12-07T09:31:50;18.77;;;11.55;;
1154;SDS011;566;48.414;9.118;2022-12-07T09:34:16;12.88;;;8.40;;
1154;SDS011;566;48.414;9.118;2022-12-07T09:36:42;25.00;;;12.60;;
1154;SDS011;566;48.414;9.118;2022-12-07T09:39:08;41.25;;;17.45;;
1154;SDS011;566;48.414;9.118;2022-12-07T09:41:36;12.77;;;8.00;;
1154;SDS011;566;48.414;9.118;2022-12-07T09:44:05;15.52;;;9.65;;
1154;SDS011;566;48.414;9.118;2022-12-07T09:46:38;12.43;;;8.48;;
1154;SDS011;566;48.414;9.118;2022-12-07T09:49:11;16.60;;;9.07;;
1154;SDS011;566;48.414;9.118;2022-12-07T09:51:42;21.15;;;12.50;;
1154;SDS011;566;48.414;9.118;2022-12-07T09:54:08;24.00;;;13.27;;
1154;SDS011;566;48.414;9.118;2022-12-07T09:56:41;14.55;;;9.57;;
1154;SDS011;566;48.414;9.118;2022-12-07T09:59:12;15.02;;;9.57;;
1154;SDS011;566;48.414;9.118;2022-12-07T10:01:42;16.92;;;9.50;;
1154;SDS011;566;48.414;9.118;2022-12-07T10:06:40;17.50;;;10.07;;
1154;SDS011;566;48.414;9.118;2022-12-07T10:09:10;15.90;;;10.48;;
1154;SDS011;566;48.414;9.118;2022-12-07T10:14:29;11.68;;;7.93;;
1154;SDS011;566;48.414;9.118;2022-12-07T10:17:00;10.45;;;6.88;;
1154;SDS011;566;48.414;9.118;2022-12-07T10:19:28;17.48;;;11.18;;
1154;SDS011;566;48.414;9.118;2022-12-07T10:24:40;11.43;;;6.82;;
1154;SDS011;566;48.414;9.118;2022-12-07T10:27:17;11.70;;;7.55;;
1154;SDS011;566;48.414;9.118;2022-12-07T10:29:43;11.90;;;7.32;;
1154;SDS011;566;48.414;9.118;2022-12-07T10:34:44;10.65;;;7.10;;
1154;SDS011;566;48.414;9.118;2022-12-07T10:37:20;11.25;;;7.18;;
1154;SDS011;566;48.414;9.118;2022-12-07T10:39:55;10.02;;;6.15;;
1154;SDS011;566;48.414;9.118;2022-12-07T11:01:23;12.40;;;8.50;;
1154;SDS011;566;48.414;9.118;2022-12-07T11:06:53;10.45;;;6.55;;
1154;SDS011;566;48.414;9.118;2022-12-07T11:15:26;13.38;;;8.38;;
1154;SDS011;566;48.414;9.118;2022-12-07T11:18:14;12.18;;;7.60;;
1154;SDS011;566;48.414;9.118;2022-12-07T11:21:07;15.45;;;9.10;;
1154;SDS011;566;48.414;9.118;2022-12-07T11:32:22;12.10;;;7.10;;
1154;SDS011;566;48.414;9.118;2022-12-07T11:37:59;14.25;;;9.85;;
1154;SDS011;566;48.414;9.118;2022-12-07T11:40:36;16.58;;;10.18;;
1154;SDS011;566;48.414;9.118;2022-12-07T11:45:54;11.68;;;8.23;;
1154;SDS011;566;48.414;9.118;2022-12-07T11:51:45;15.07;;;7.80;;
1154;SDS011;566;48.414;9.118;2022-12-07T11:54:23;21.55;;;11.35;;
1154;SDS011;566;48.414;9.118;2022-12-07T11:56:53;13.18;;;8.60;;
1154;SDS011;566;48.414;9.118;2022-12-07T11:59:38;29.00;;;15.80;;
1154;SDS011;566;48.414;9.118;2022-12-07T12:02:19;24.00;;;12.75;;
1154;SDS011;566;48.414;9.118;2022-12-07T12:22:20;12.93;;;7.53;;
1154;SDS011;566;48.414;9.118;2022-12-07T12:24:52;11.85;;;7.15;;
1154;SDS011;566;48.414;9.118;2022-12-07T12:27:32;12.38;;;9.02;;
1154;SDS011;566;48.414;9.118;2022-12-07T12:30:29;10.73;;;6.70;;
1154;SDS011;566;48.414;9.118;2022-12-07T12:33:04;12.80;;;7.32;;
1154;SDS011;566;48.414;9.118;2022-12-07T12:35:48;12.25;;;7.10;;
1154;SDS011;566;48.414;9.118;2022-12-07T12:44:01;11.60;;;7.22;;
1154;SDS011;566;48.414;9.118;2022-12-07T12:51:49;11.10;;;6.85;;
1154;SDS011;566;48.414;9.118;2022-12-07T12:54:19;9.13;;;6.03;;
1154;SDS011;566;48.414;9.118;2022-12-07T12:59:39;13.32;;;7.90;;
1154;SDS011;566;48.414;9.118;2022-12-07T13:02:15;9.98;;;6.60;;
1154;SDS011;566;48.414;9.118;2022-12-07T13:18:38;10.40;;;6.00;;
1154;SDS011;566;48.414;9.118;2022-12-07T13:23:37;12.07;;;7.50;;
1154;SDS011;566;48.414;9.118;2022-12-07T13:28:38;16.00;;;8.68;;
1154;SDS011;566;48.414;9.118;2022-12-07T13:31:11;14.25;;;9.75;;
1154;SDS011;566;48.414;9.118;2022-12-07T13:33:53;14.40;;;8.27;;
1154;SDS011;566;48.414;9.118;2022-12-07T13:36:22;13.30;;;8.13;;
1154;SDS011;566;48.414;9.118;2022-12-07T13:38:56;9.00;;;6.07;;
1154;SDS011;566;48.414;9.118;2022-12-07T13:41:27;12.00;;;7.95;;
1154;SDS011;566;48.414;9.118;2022-12-07T13:49:32;11.43;;;7.68;;
1154;SDS011;566;48.414;9.118;2022-12-07T13:52:16;15.57;;;9.00;;
1154;SDS011;566;48.414;9.118;2022-12-07T13:54:55;12.80;;;7.43;;
1154;SDS011;566;48.414;9.118;2022-12-07T13:57:21;10.45;;;6.43;;
1154;SDS011;566;48.414;9.118;2022-12-07T13:59:48;13.48;;;7.43;;
1154;SDS011;566;48.414;9.118;2022-12-07T14:02:25;12.82;;;7.80;;
1154;SDS011;566;48.414;9.118;2022-12-07T14:05:05;13.32;;;8.30;;
1154;SDS011;566;48.414;9.118;2022-12-07T14:10:36;14.25;;;8.55;;
1154;SDS011;566;48.414;9.118;2022-12-07T14:15:54;13.55;;;9.27;;
1154;SDS011;566;48.414;9.118;2022-12-07T14:18:27;11.75;;;7.53;;
1154;SDS011;566;48.414;9.118;2022-12-07T14:21:05;10.38;;;7.15;;
1154;SDS011;566;48.414;9.118;2022-12-07T14:23:40;11.80;;;6.70;;
1154;SDS011;566;48.414;9.118;2022-12-07T14:28:45;14.52;;;8.35;;
1154;SDS011;566;48.414;9.118;2022-12-07T14:31:13;11.27;;;7.25;;
1154;SDS011;566;48.414;9.118;2022-12-07T14:33:40;24.10;;;16.38;;
1154;SDS011;566;48.414;9.118;2022-12-07T14:36:10;15.48;;;8.00;;
1154;SDS011;566;48.414;9.118;2022-12-07T14:38:37;15.13;;;9.18;;
1154;SDS011;566;48.414;9.118;2022-12-07T14:41:03;15.70;;;9.52;;
1154;SDS011;566;48.414;9.118;2022-12-07T14:43:49;11.82;;;7.20;;
1154;SDS011;566;48.414;9.118;2022-12-07T14:46:15;17.27;;;10.82;;
1154;SDS011;566;48.414;9.118;2022-12-07T14:48:40;17.90;;;12.98;;
1154;SDS011;566;48.414;9.118;2022-12-07T14:51:08;43.80;;;25.25;;
1154;SDS011;566;48.414;9.118;2022-12-07T14:53:40;53.03;;;22.80;;
1154;SDS011;566;48.414;9.118;2022-12-07T14:56:09;43.60;;;22.75;;
1154;SDS011;566;48.414;9.118;2022-12-07T14:58:34;20.02;;;11.48;;
1154;SDS011;566;48.414;9.118;2022-12-07T15:01:00;26.77;;;15.52;;
1154;SDS011;566;48.414;9.118;2022-12-07T15:03:26;18.85;;;9.55;;
1154;SDS011;566;48.414;9.118;2022-12-07T15:05:52;18.02;;;10.82;;
1154;SDS011;566;48.414;9.118;2022-12-07T15:08:18;42.90;;;27.15;;
1154;SDS011;566;48.414;9.118;2022-12-07T15:10:43;32.67;;;22.35;;
1154;SDS011;566;48.414;9.118;2022-12-07T15:13:09;23.98;;;16.25;;
1154;SDS011;566;48.414;9.118;2022-12-07T15:15:53;25.55;;;15.57;;
1154;SDS011;566;48.414;9.118;2022-12-07T15:18:20;29.77;;;20.75;;
1154;SDS011;566;48.414;9.118;2022-12-07T15:20:47;18.58;;;11.90;;
1154;SDS011;566;48.414;9.118;2022-12-07T15:23:13;21.20;;;11.07;;
1154;SDS011;566;48.414;9.118;2022-12-07T15:25:40;27.15;;;16.95;;
1154;SDS011;566;48.414;9.118;2022-12-07T15:28:09;20.30;;;12.35;;
1154;SDS011;566;48.414;9.118;2022-12-07T15:30:39;21.08;;;13.60;;
1154;SDS011;566;48.414;9.118;2022-12-07T15:33:08;18.55;;;10.40;;
1154;SDS011;566;48.414;9.118;2022-12-07T15:35:37;16.38;;;10.68;;
1154;SDS011;566;48.414;9.118;2022-12-07T15:38:04;19.23;;;11.50;;
1154;SDS011;566;48.414;9.118;2022-12-07T15:40:33;32.13;;;23.30;;
1154;SDS011;566;48.414;9.118;2022-12-07T15:42:59;22.00;;;15.77;;
1154;SDS011;566;48.414;9.118;2022-12-07T15:45:25;19.30;;;12.82;;
1154;SDS011;566;48.414;9.118;2022-12-07T15:47:51;31.45;;;18.85;;
1154;SDS011;566;48.414;9.118;2022-12-07T15:50:16;31.60;;;17.70;;
1154;SDS011;566;48.414;9.118;2022-12-07T15:52:45;41.60;;;23.05;;
1154;SDS011;566;48.414;9.118;2022-12-07T15:55:11;33.50;;;17.60;;
1154;SDS011;566;48.414;9.118;2022-12-07T15:57:37;36.85;;;20.13;;
1154;SDS011;566;48.414;9.118;2022-12-07T16:00:12;37.42;;;20.45;;
1154;SDS011;566;48.414;9.118;2022-12-07T16:02:38;30.65;;;17.08;;
1154;SDS011;566;48.414;9.118;2022-12-07T16:05:07;31.92;;;18.83;;
1154;SDS011;566;48.414;9.118;2022-12-07T16:07:34;23.48;;;14.02;;
1154;SDS011;566;48.414;9.118;2022-12-07T16:10:04;30.10;;;15.95;;
1154;SDS011;566;48.414;9.118;2022-12-07T16:12:30;26.20;;;14.30;;
1154;SDS011;566;48.414;9.118;2022-12-07T16:14:56;15.15;;;9.40;;
1154;SDS011;566;48.414;9.118;2022-12-07T16:17:24;17.35;;;10.40;;
1154;SDS011;566;48.414;9.118;2022-12-07T16:19:50;18.85;;;10.95;;
1154;SDS011;566;48.414;9.118;2022-12-07T16:22:15;22.30;;;12.98;;
1154;SDS011;566;48.414;9.118;2022-12-07T16:24:41;30.73;;;18.75;;
1154;SDS011;566;48.414;9.118;2022-12-07T16:27:09;23.88;;;14.70;;
1154;SDS011;566;48.414;9.118;2022-12-07T16:29:38;21.92;;;13.63;;
1154;SDS011;566;48.414;9.118;2022-12-07T16:32:03;18.95;;;10.90;;
1154;SDS011;566;48.414;9.118;2022-12-07T16:34:29;17.60;;;11.05;;
1154;SDS011;566;48.414;9.118;2022-12-07T16:36:55;21.17;;;12.85;;
1154;SDS011;566;48.414;9.118;2022-12-07T16:39:20;18.02;;;11.10;;
1154;SDS011;566;48.414;9.118;2022-12-07T16:41:46;29.67;;;15.23;;
1154;SDS011;566;48.414;9.118;2022-12-07T16:44:12;27.42;;;17.60;;
1154;SDS011;566;48.414;9.118;2022-12-07T16:46:41;26.77;;;17.75;;
1154;SDS011;566;48.414;9.118;2022-12-07T16:49:11;17.70;;;10.82;;
1154;SDS011;566;48.414;9.118;2022-12-07T16:51:41;17.92;;;12.05;;
1154;SDS011;566;48.414;9.118;2022-12-07T16:54:19;16.90;;;11.15;;
1154;SDS011;566;48.414;9.118;2022-12-07T16:56:47;16.17;;;10.98;;
1154;SDS011;566;48.414;9.118;2022-12-07T16:59:14;18.88;;;11.27;;
1154;SDS011;566;48.414;9.118;2022-12-07T17:01:39;17.33;;;11.85;;
1154;SDS011;566;48.414;9.118;2022-12-07T17:04:05;16.58;;;11.60;;
1154;SDS011;566;48.414;9.118;2022-12-07T17:06:35;23.25;;;14.75;;
1154;SDS011;566;48.414;9.118;2022-12-07T17:09:01;27.05;;;15.52;;
1154;SDS011;566;48.414;9.118;2022-12-07T17:11:29;26.50;;;15.32;;
1154;SDS011;566;48.414;9.118;2022-12-07T17:13:58;24.98;;;15.45;;
1154;SDS011;566;48.414;9.118;2022-12-07T17:16:42;26.98;;;15.68;;
1154;SDS011;566;48.414;9.118;2022-12-07T17:19:09;25.67;;;14.95;;
1154;SDS011;566;48.414;9.118;2022-12-07T17:21:39;22.23;;;13.93;;
1154;SDS011;566;48.414;9.118;2022-12-07T17:24:06;27.02;;;15.05;;
1154;SDS011;566;48.414;9.118;2022-12-07T17:26:33;31.90;;;18.65;;
1154;SDS011;566;48.414;9.118;2022-12-07T17:28:59;36.17;;;19.92;;
1154;SDS011;566;48.414;9.118;2022-12-07T17:31:28;34.28;;;21.13;;
1154;SDS011;566;48.414;9.118;2022-12-07T17:33:54;36.88;;;23.60;;
1154;SDS011;566;48.414;9.118;2022-12-07T17:36:20;36.78;;;20.83;;
1154;SDS011;566;48.414;9.118;2022-12-07T17:38:48;47.63;;;25.48;;
1154;SDS011;566;48.414;9.118;2022-12-07T17:41:15;41.55;;;26.38;;
1154;SDS011;566;48.414;9.118;2022-12-07T17:44:20;38.83;;;23.13;;
1154;SDS011;566;48.414;9.118;2022-12-07T17:46:47;56.60;;;31.25;;
1154;SDS011;566;48.414;9.118;2022-12-07T17:49:14;19.73;;;12.07;;